This is the latest recevied weather packets stored in our database for station/object DC4XK-10. If no packets are shown the sender has not sent any weather packets the latest 10 day(s).
| Time | Temp. | Humidity | Pressure | Rain* | Wind** | Luminosity | Snow |
|---|---|---|---|---|---|---|---|
| 1777873131 | 10.56° C | 96% | 1009.3 hPa | 0 mm | 0.89 m/s, 263° | - | - |
| 1777872530 | 10.56° C | 97% | 1009.1 hPa | 0 mm | 2.24 m/s, 262° | - | - |
| 1777871931 | 11.11° C | 97% | 1009 hPa | 0 mm | 3.13 m/s, 275° | - | - |
| 1777871331 | 11.11° C | 97% | 1008.8 hPa | 0 mm | 0.45 m/s, 168° | - | - |
| 1777870730 | 11.11° C | 96% | 1008.9 hPa | 0 mm | 2.68 m/s, 302° | - | - |
| 1777870132 | 11.11° C | 95% | 1008.6 hPa | 0 mm | 0.45 m/s, 254° | - | - |
| 1777869531 | 11.67° C | 95% | 1008.5 hPa | 0 mm | 1.79 m/s, 312° | - | - |
| 1777868931 | 11.67° C | 94% | 1008.5 hPa | 0 mm | 1.79 m/s, 271° | - | - |
| 1777868333 | 11.67° C | 93% | 1008.4 hPa | 0 mm | 2.68 m/s, 250° | - | - |
| 1777867130 | 12.22° C | 94% | 1008.2 hPa | 0 mm | 1.79 m/s, 227° | - | - |
| 1777866534 | 12.78° C | 94% | 1008 hPa | 0 mm | 2.68 m/s, 262° | - | - |
| 1777865931 | 12.78° C | 94% | 1008 hPa | 0 mm | 2.68 m/s, 179° | - | - |
| 1777844333 | 15° C | 97% | 1007.4 hPa | 0 mm | 2.24 m/s, 240° | - | - |
| 1777843131 | 15.56° C | 95% | 1007.3 hPa | 1.27 mm | 0.89 m/s, 240° | - | - |
| 1777840734 | 15.56° C | 95% | 1007.2 hPa | 0 mm | 0 m/s | - | - |
| 1777840131 | 16.11° C | 94% | 1007.3 hPa | 0 mm | 0 m/s | - | - |
| 1777835930 | 15° C | 95% | 1006.6 hPa | 0 mm | 0 m/s | - | - |
| 1777835331 | 15.56° C | 95% | 1006.4 hPa | 0 mm | 0 m/s | - | - |
| 1777834732 | 15.56° C | 94% | 1006.5 hPa | 0 mm | 0 m/s | - | - |
| 1777832931 | 15.56° C | 92% | 1006.2 hPa | 0 mm | 0 m/s | - | - |
| 1777826331 | 17.78° C | 95% | 1005.6 hPa | 0 mm | 0 m/s | - | - |
| 1777823931 | 18.33° C | 95% | 1006 hPa | 0 mm | 0 m/s | - | - |
| 1777823332 | 18.33° C | 96% | 1006.5 hPa | 0 mm | 0 m/s | - | - |
| 1777822131 | 18.33° C | 92% | 1006.5 hPa | 24.64 mm | 0 m/s | - | - |
| 1777821531 | 21.67° C | 73% | 1006.6 hPa | 0 mm | 0.45 m/s, 177° | - | - |
* Rain latest hour (hover to see other rain measurements)
** Current wind speed in m/s (hover to see current wind gust speed)